createdAt,value
2022-08-18T00:00:20.745Z,20.80
2022-08-18T00:00:52.619Z,20.80
2022-08-18T00:01:26.157Z,20.80
2022-08-18T00:02:12.725Z,20.80
2022-08-18T00:02:54.431Z,20.80
2022-08-18T00:03:55.424Z,20.80
2022-08-18T00:04:35.306Z,20.80
2022-08-18T00:05:10.439Z,20.80
2022-08-18T00:05:46.518Z,20.80
2022-08-18T00:06:19.233Z,20.80
2022-08-18T00:06:50.987Z,20.80
2022-08-18T00:07:25.978Z,20.80
2022-08-18T00:07:58.970Z,20.80
2022-08-18T00:08:30.763Z,20.80
2022-08-18T00:09:06.772Z,20.80
2022-08-18T00:09:41.490Z,20.80
2022-08-18T00:10:15.571Z,20.70
2022-08-18T00:10:50.831Z,20.80
2022-08-18T00:11:23.661Z,20.80
2022-08-18T00:11:55.495Z,20.80
2022-08-18T00:12:38.814Z,20.70
2022-08-18T00:13:10.619Z,20.70
2022-08-18T00:13:42.400Z,20.80
2022-08-18T00:14:22.251Z,20.80
2022-08-18T00:14:56.380Z,20.80
2022-08-18T00:15:28.326Z,20.70
2022-08-18T00:16:00.140Z,20.80
2022-08-18T00:16:32.023Z,20.80
2022-08-18T00:17:04.423Z,20.80
2022-08-18T00:17:36.845Z,20.80
2022-08-18T00:18:08.639Z,20.80
2022-08-18T00:18:40.426Z,20.70
2022-08-18T00:19:12.281Z,20.70
2022-08-18T00:19:45.962Z,20.80
2022-08-18T00:20:23.965Z,20.70
2022-08-18T00:20:55.822Z,20.80
2022-08-18T00:21:27.805Z,20.80
2022-08-18T00:21:59.829Z,20.70
2022-08-18T00:22:31.669Z,20.80
2022-08-18T00:23:03.482Z,20.70
2022-08-18T00:23:35.265Z,20.80
2022-08-18T00:24:07.215Z,20.80
2022-08-18T00:24:39.076Z,20.70
2022-08-18T00:25:21.131Z,20.70
2022-08-18T00:25:52.898Z,20.70
2022-08-18T00:26:24.723Z,20.70
2022-08-18T00:26:56.915Z,20.80
2022-08-18T00:27:30.969Z,20.80
2022-08-18T00:28:03.039Z,20.70
2022-08-18T00:28:34.896Z,20.70
2022-08-18T00:29:06.751Z,20.80
2022-08-18T00:29:38.543Z,20.70
2022-08-18T00:30:14.770Z,20.70
2022-08-18T00:30:46.560Z,20.70
2022-08-18T00:31:19.877Z,20.70
2022-08-18T00:31:51.758Z,20.70
2022-08-18T00:32:36.130Z,20.70
2022-08-18T00:33:08.024Z,20.70
2022-08-18T00:33:39.838Z,20.70
2022-08-18T00:34:11.669Z,20.70
2022-08-18T00:34:43.508Z,20.60
2022-08-18T00:35:28.963Z,20.70
2022-08-18T00:36:01.120Z,20.70
2022-08-18T00:36:34.650Z,20.70
2022-08-18T00:37:06.577Z,20.70
2022-08-18T00:37:38.378Z,20.70
2022-08-18T00:38:24.755Z,20.70
2022-08-18T00:38:57.163Z,20.70
2022-08-18T00:39:34.249Z,20.70
2022-08-18T00:40:13.335Z,20.70
2022-08-18T00:40:49.093Z,20.70
2022-08-18T00:41:21.714Z,20.70
2022-08-18T00:41:53.486Z,20.70
2022-08-18T00:42:31.078Z,20.70
2022-08-18T00:43:05.574Z,20.70
2022-08-18T00:43:47.944Z,20.70
2022-08-18T00:44:19.729Z,20.70
2022-08-18T00:44:51.998Z,20.70
2022-08-18T00:45:30.142Z,20.70
2022-08-18T00:46:02.280Z,20.70
2022-08-18T00:46:37.282Z,20.70
2022-08-18T00:47:09.196Z,20.70
2022-08-18T00:47:52.543Z,20.70
2022-08-18T00:48:24.710Z,20.70
2022-08-18T00:48:57.895Z,20.70
2022-08-18T00:49:29.693Z,20.70
2022-08-18T00:50:01.906Z,20.70
2022-08-18T00:50:43.129Z,20.70
2022-08-18T00:51:33.415Z,20.70
2022-08-18T00:52:06.621Z,20.60
2022-08-18T00:52:39.182Z,20.70
2022-08-18T00:53:44.060Z,20.70
2022-08-18T00:54:26.453Z,20.60
2022-08-18T00:54:59.514Z,20.60
2022-08-18T00:55:33.540Z,20.70
2022-08-18T00:56:11.479Z,20.60
2022-08-18T00:56:53.518Z,20.60
2022-08-18T00:57:25.937Z,20.60
2022-08-18T00:58:06.574Z,20.60
2022-08-18T00:58:51.760Z,20.60
2022-08-18T00:59:33.499Z,20.60
2022-08-18T01:00:13.042Z,20.60
2022-08-18T01:00:46.777Z,20.60
2022-08-18T01:01:25.850Z,20.70
2022-08-18T01:02:02.573Z,20.60
2022-08-18T01:02:42.192Z,20.60
2022-08-18T01:03:25.066Z,19.90
2022-08-18T01:04:05.298Z,20.60
2022-08-18T01:05:01.210Z,20.60
2022-08-18T01:05:43.166Z,20.60
2022-08-18T01:06:32.275Z,20.60
2022-08-18T01:07:20.997Z,20.60
2022-08-18T01:07:53.343Z,20.60
2022-08-18T01:08:29.119Z,20.60
2022-08-18T01:09:03.163Z,20.60
2022-08-18T01:09:35.559Z,20.60
2022-08-18T01:10:07.973Z,21.60
2022-08-18T01:10:40.615Z,20.60
2022-08-18T01:11:12.443Z,20.60
2022-08-18T01:11:44.742Z,20.60
2022-08-18T01:12:44.207Z,20.60
2022-08-18T01:13:09.382Z,20.60
2022-08-18T01:13:42.951Z,20.60
2022-08-18T01:14:18.312Z,20.60
2022-08-18T01:14:50.160Z,20.60
2022-08-18T01:15:28.219Z,20.60
2022-08-18T01:16:24.989Z,20.60
2022-08-18T01:17:16.195Z,20.60
2022-08-18T01:18:07.304Z,20.60
2022-08-18T01:18:57.568Z,20.30
2022-08-18T01:19:48.706Z,20.60
2022-08-18T01:20:48.370Z,20.60
2022-08-18T01:21:46.726Z,20.60
2022-08-18T01:22:32.969Z,20.60
2022-08-18T01:23:14.380Z,20.60
2022-08-18T01:23:48.652Z,20.60
2022-08-18T01:24:44.655Z,20.60
2022-08-18T01:25:40.271Z,20.50
2022-08-18T01:26:13.158Z,20.50
2022-08-18T01:26:50.396Z,20.50
2022-08-18T01:27:22.492Z,20.50
2022-08-18T01:27:57.012Z,20.50
2022-08-18T01:28:39.077Z,20.50
2022-08-18T01:29:11.723Z,20.50
2022-08-18T01:29:50.801Z,20.50
2022-08-18T01:30:25.738Z,20.50
2022-08-18T01:30:59.346Z,20.50
2022-08-18T01:31:54.567Z,20.50
2022-08-18T01:32:27.583Z,20.50
2022-08-18T01:32:59.519Z,20.50
2022-08-18T01:33:38.904Z,20.50
2022-08-18T01:34:11.529Z,20.50
2022-08-18T01:34:46.446Z,20.50
2022-08-18T01:35:21.492Z,20.50
2022-08-18T01:35:54.470Z,20.50
2022-08-18T01:36:26.663Z,20.50
2022-08-18T01:36:59.226Z,20.50
2022-08-18T01:37:31.355Z,20.50
2022-08-18T01:38:03.146Z,20.50
2022-08-18T01:38:35.964Z,20.50
2022-08-18T01:39:11.033Z,20.50
2022-08-18T01:41:21.930Z,20.50
2022-08-18T01:41:22.597Z,20.50
2022-08-18T01:41:30.721Z,20.50
2022-08-18T01:42:04.620Z,20.40
2022-08-18T01:42:38.484Z,20.40
2022-08-18T01:43:10.368Z,20.40
2022-08-18T01:43:42.228Z,20.40
2022-08-18T01:44:14.035Z,20.40
2022-08-18T01:44:47.858Z,20.40
2022-08-18T01:45:20.693Z,20.40
2022-08-18T01:45:52.850Z,20.40
2022-08-18T01:46:24.847Z,20.40
2022-08-18T01:46:56.638Z,20.50
2022-08-18T01:47:28.770Z,20.40
2022-08-18T01:48:04.818Z,20.40
2022-08-18T01:48:38.417Z,20.40
2022-08-18T01:49:10.835Z,20.40
2022-08-18T01:49:43.089Z,20.40
2022-08-18T01:50:15.146Z,20.40
2022-08-18T01:50:49.341Z,20.40
2022-08-18T01:51:38.062Z,20.40
2022-08-18T01:52:20.266Z,20.40
2022-08-18T01:52:53.519Z,20.40
2022-08-18T01:53:26.574Z,20.40
2022-08-18T01:53:59.280Z,20.40
2022-08-18T01:54:31.273Z,20.40
2022-08-18T01:55:04.302Z,20.40
2022-08-18T01:55:39.118Z,20.40
2022-08-18T01:56:10.945Z,20.40
2022-08-18T01:56:43.506Z,20.40
2022-08-18T01:57:16.054Z,20.40
2022-08-18T01:57:47.934Z,20.40
2022-08-18T01:58:31.423Z,20.40
2022-08-18T01:59:05.002Z,20.40
2022-08-18T01:59:36.771Z,20.40
2022-08-18T02:00:12.563Z,20.40
2022-08-18T02:00:44.494Z,20.40
2022-08-18T02:01:16.546Z,20.40
2022-08-18T02:01:53.453Z,20.40
2022-08-18T02:02:32.711Z,20.40
2022-08-18T02:03:09.376Z,20.40
2022-08-18T02:03:46.651Z,20.40
2022-08-18T02:04:36.461Z,20.40
2022-08-18T02:05:16.757Z,20.80
2022-08-18T02:05:51.197Z,20.40
2022-08-18T02:06:32.050Z,20.40
2022-08-18T02:07:11.146Z,20.40
2022-08-18T02:07:43.449Z,20.40
2022-08-18T02:08:16.501Z,20.40
2022-08-18T02:08:49.921Z,20.40
2022-08-18T02:09:26.118Z,20.40
2022-08-18T02:09:58.310Z,20.40
2022-08-18T02:10:31.591Z,20.40
2022-08-18T02:11:03.743Z,20.40
2022-08-18T02:11:35.517Z,20.40
2022-08-18T02:12:08.569Z,20.40
2022-08-18T02:12:41.423Z,20.40
2022-08-18T02:13:13.506Z,20.40
2022-08-18T02:13:45.309Z,20.30
2022-08-18T02:14:17.088Z,20.30
2022-08-18T02:14:57.153Z,20.30
2022-08-18T02:15:29.106Z,20.30
2022-08-18T02:16:01.615Z,20.30
2022-08-18T02:16:33.526Z,20.30
2022-08-18T02:17:08.290Z,20.30
2022-08-18T02:17:42.981Z,20.30
2022-08-18T02:18:46.908Z,20.30
2022-08-18T02:19:16.182Z,20.30
2022-08-18T02:19:48.310Z,20.30
2022-08-18T02:20:20.681Z,20.30
2022-08-18T02:20:52.578Z,20.30
2022-08-18T02:21:24.395Z,20.30
2022-08-18T02:21:56.230Z,20.30
2022-08-18T02:22:28.085Z,20.30
2022-08-18T02:23:02.655Z,20.30
2022-08-18T02:23:34.698Z,20.30
2022-08-18T02:24:06.617Z,20.30
2022-08-18T02:24:38.972Z,20.30
2022-08-18T02:25:11.999Z,20.30
2022-08-18T02:25:44.210Z,20.20
2022-08-18T02:26:18.434Z,20.30
2022-08-18T02:26:50.384Z,20.30
2022-08-18T02:27:22.181Z,20.30
2022-08-18T02:27:53.996Z,20.30
2022-08-18T02:28:30.198Z,20.30
2022-08-18T02:29:02.607Z,20.30
2022-08-18T02:29:35.302Z,20.20
2022-08-18T02:30:09.974Z,20.20
2022-08-18T02:30:41.949Z,20.20
2022-08-18T02:31:18.164Z,20.30
2022-08-18T02:31:49.925Z,20.20
2022-08-18T02:32:21.807Z,20.30
2022-08-18T02:32:57.940Z,20.30
2022-08-18T02:33:29.710Z,20.30
2022-08-18T02:34:01.567Z,20.30
2022-08-18T02:34:33.882Z,20.30
2022-08-18T02:35:08.407Z,20.30
2022-08-18T02:35:46.147Z,20.30
2022-08-18T02:36:18.885Z,20.30
2022-08-18T02:36:51.232Z,20.30
2022-08-18T02:37:23.190Z,20.30
2022-08-18T02:37:55.074Z,20.30
2022-08-18T02:38:27.043Z,20.30
2022-08-18T02:39:05.230Z,20.30
2022-08-18T02:39:38.390Z,20.30
2022-08-18T02:40:14.943Z,20.30
2022-08-18T02:40:47.139Z,20.30
2022-08-18T02:41:20.233Z,20.30
2022-08-18T02:41:52.023Z,20.30
2022-08-18T02:42:24.755Z,20.20
2022-08-18T02:42:56.540Z,20.20
2022-08-18T02:43:31.167Z,20.20
2022-08-18T02:44:07.901Z,20.20
2022-08-18T02:44:39.767Z,20.30
2022-08-18T02:45:13.215Z,20.20
2022-08-18T02:45:44.982Z,20.30
2022-08-18T02:46:16.793Z,20.30
2022-08-18T02:46:54.014Z,20.20
2022-08-18T02:47:29.101Z,20.20
2022-08-18T02:48:04.326Z,20.30
2022-08-18T02:48:36.199Z,20.20
2022-08-18T02:49:08.159Z,20.20
2022-08-18T02:49:40.454Z,20.20
2022-08-18T02:50:14.135Z,20.20
2022-08-18T02:50:48.588Z,20.20
2022-08-18T02:51:20.658Z,20.20
2022-08-18T02:51:58.502Z,20.20
2022-08-18T02:52:33.370Z,20.20
2022-08-18T02:53:05.139Z,20.20
2022-08-18T02:53:37.663Z,20.20
2022-08-18T02:54:11.423Z,20.20
2022-08-18T02:54:43.703Z,20.20
2022-08-18T02:55:16.377Z,20.20
2022-08-18T02:55:48.648Z,20.20
2022-08-18T02:56:40.366Z,20.20
2022-08-18T02:57:14.684Z,20.20
2022-08-18T02:57:48.998Z,20.20
2022-08-18T02:58:21.216Z,20.20
2022-08-18T02:59:00.281Z,20.20
2022-08-18T02:59:33.544Z,20.20
2022-08-18T03:00:05.998Z,20.20
2022-08-18T03:00:38.942Z,20.20
2022-08-18T03:01:10.968Z,20.20
2022-08-18T03:01:46.088Z,20.20
2022-08-18T03:02:18.435Z,20.20
2022-08-18T03:02:54.481Z,20.20
2022-08-18T03:03:26.322Z,20.20
2022-08-18T03:04:00.211Z,20.20
2022-08-18T03:04:32.124Z,20.20
2022-08-18T03:05:04.635Z,20.20
2022-08-18T03:05:36.410Z,20.20
2022-08-18T03:06:08.244Z,20.20
2022-08-18T03:06:40.380Z,20.20
2022-08-18T03:07:14.651Z,20.20
2022-08-18T03:07:46.775Z,20.20
2022-08-18T03:08:18.565Z,20.20
2022-08-18T03:08:51.727Z,20.20
2022-08-18T03:09:23.700Z,20.20
2022-08-18T03:09:55.541Z,20.20
2022-08-18T03:10:32.508Z,20.20
2022-08-18T03:11:05.495Z,20.20
2022-08-18T03:11:37.964Z,20.20
2022-08-18T03:12:10.667Z,20.20
2022-08-18T03:12:44.200Z,20.20
2022-08-18T03:13:15.989Z,20.20
2022-08-18T03:13:48.346Z,20.20
2022-08-18T03:14:20.949Z,20.20
2022-08-18T03:14:52.679Z,20.20
2022-08-18T03:15:24.505Z,20.20
2022-08-18T03:15:58.452Z,20.20
2022-08-18T03:16:32.698Z,20.90
2022-08-18T03:17:08.390Z,20.20
2022-08-18T03:17:40.261Z,20.20
2022-08-18T03:18:12.344Z,20.20
2022-08-18T03:18:46.563Z,20.20
2022-08-18T03:19:18.483Z,20.20
2022-08-18T03:19:50.250Z,20.10
2022-08-18T03:20:31.111Z,20.20
2022-08-18T03:21:12.217Z,20.10
2022-08-18T03:21:47.035Z,20.10
2022-08-18T03:22:28.280Z,20.10
2022-08-18T03:23:09.505Z,20.20
2022-08-18T03:23:42.707Z,20.20
2022-08-18T03:24:19.344Z,20.20
2022-08-18T03:24:54.383Z,20.20
2022-08-18T03:25:26.148Z,20.20
2022-08-18T03:25:57.953Z,20.20
2022-08-18T03:26:31.844Z,20.20
2022-08-18T03:27:07.872Z,20.10
2022-08-18T03:27:39.628Z,20.10
2022-08-18T03:28:12.203Z,18.50
2022-08-18T03:28:48.026Z,20.10
2022-08-18T03:29:21.325Z,20.10
2022-08-18T03:29:53.487Z,20.10
2022-08-18T03:30:25.268Z,20.20
2022-08-18T03:30:57.330Z,20.10
2022-08-18T03:31:31.433Z,20.10
2022-08-18T03:32:06.763Z,20.10
2022-08-18T03:32:38.562Z,20.10
2022-08-18T03:33:17.610Z,19.00
2022-08-18T03:33:51.545Z,20.10
2022-08-18T03:34:23.322Z,20.10
2022-08-18T03:34:55.170Z,20.10
2022-08-18T03:35:26.959Z,20.10
2022-08-18T03:36:15.730Z,20.10
2022-08-18T03:36:50.560Z,20.10
2022-08-18T03:37:22.351Z,20.10
2022-08-18T03:37:55.756Z,20.10
2022-08-18T03:38:27.534Z,20.10
2022-08-18T03:39:04.193Z,20.10
2022-08-18T03:39:36.568Z,20.10
2022-08-18T03:40:10.987Z,20.10
2022-08-18T03:40:43.254Z,20.10
2022-08-18T03:41:17.990Z,20.10
2022-08-18T03:42:09.928Z,20.10
2022-08-18T03:42:42.053Z,20.10
2022-08-18T03:43:50.016Z,20.10
2022-08-18T03:44:06.573Z,20.10
2022-08-18T03:44:38.383Z,20.10
2022-08-18T03:45:12.981Z,20.10
2022-08-18T03:45:49.414Z,20.10
2022-08-18T03:46:22.719Z,20.10
2022-08-18T03:46:54.602Z,20.10
2022-08-18T03:47:27.445Z,20.10
2022-08-18T03:48:00.663Z,20.10
2022-08-18T03:48:35.959Z,20.10
2022-08-18T03:49:07.834Z,20.10
2022-08-18T03:49:39.622Z,19.90
2022-08-18T03:50:14.203Z,20.10
2022-08-18T03:50:47.299Z,20.10
2022-08-18T03:51:25.464Z,20.10
2022-08-18T03:52:00.582Z,20.10
2022-08-18T03:52:32.453Z,20.10
2022-08-18T03:53:05.265Z,20.10
2022-08-18T03:53:38.006Z,20.10
2022-08-18T03:54:10.175Z,20.10
2022-08-18T03:54:42.113Z,20.10
2022-08-18T03:55:14.760Z,20.10
2022-08-18T03:55:46.546Z,20.10
2022-08-18T03:56:29.042Z,20.10
2022-08-18T03:57:01.596Z,20.10
2022-08-18T03:57:33.336Z,20.10
2022-08-18T03:58:14.797Z,20.10
2022-08-18T03:58:49.789Z,20.10
2022-08-18T03:59:24.776Z,20.10
2022-08-18T03:59:56.577Z,20.10
2022-08-18T04:00:30.373Z,20.10
2022-08-18T04:01:03.525Z,20.10
2022-08-18T04:01:39.627Z,20.10
2022-08-18T04:02:12.331Z,20.10
2022-08-18T04:02:44.150Z,20.10
2022-08-18T04:03:15.939Z,20.10
2022-08-18T04:03:51.488Z,20.10
2022-08-18T04:04:26.706Z,20.10
2022-08-18T04:04:58.626Z,20.10
2022-08-18T04:05:30.509Z,20.10
2022-08-18T04:06:02.277Z,20.10
2022-08-18T04:06:39.288Z,20.10
2022-08-18T04:07:17.192Z,20.10
2022-08-18T04:07:49.027Z,20.10
2022-08-18T04:08:20.817Z,20.10
2022-08-18T04:08:54.870Z,20.10
2022-08-18T04:09:29.391Z,20.10
2022-08-18T04:10:01.283Z,20.10
2022-08-18T04:10:35.524Z,20.10
2022-08-18T04:11:07.438Z,20.10
2022-08-18T04:11:43.308Z,20.10
2022-08-18T04:12:17.260Z,20.10
2022-08-18T04:12:49.978Z,20.10
2022-08-18T04:13:23.343Z,20.10
2022-08-18T04:13:57.812Z,20.10
2022-08-18T04:14:32.592Z,20.00
2022-08-18T04:15:04.955Z,20.10
2022-08-18T04:15:37.540Z,20.10
2022-08-18T04:16:09.837Z,20.10
2022-08-18T04:16:42.444Z,20.10
2022-08-18T04:17:14.588Z,20.10
2022-08-18T04:18:02.945Z,20.10
2022-08-18T04:18:36.482Z,20.10
2022-08-18T04:19:09.561Z,20.10
2022-08-18T04:19:42.006Z,20.10
2022-08-18T04:20:13.835Z,20.10
2022-08-18T04:20:59.638Z,20.10
2022-08-18T04:21:34.193Z,20.10
2022-08-18T04:22:06.175Z,20.10
2022-08-18T04:22:38.084Z,20.10
2022-08-18T04:23:09.837Z,20.10
2022-08-18T04:23:43.594Z,20.10
2022-08-18T04:24:16.118Z,20.10
2022-08-18T04:24:48.128Z,20.10
2022-08-18T04:25:21.809Z,20.10
2022-08-18T04:26:00.758Z,20.10
2022-08-18T04:26:35.576Z,20.10
2022-08-18T04:27:07.525Z,20.10
2022-08-18T04:27:42.209Z,20.10
2022-08-18T04:28:13.988Z,20.10
2022-08-18T04:28:46.379Z,20.10
2022-08-18T04:29:21.079Z,20.10
2022-08-18T04:29:53.080Z,20.10
2022-08-18T04:30:24.909Z,20.10
2022-08-18T04:30:59.376Z,20.10
2022-08-18T04:31:32.128Z,20.10
2022-08-18T04:32:04.954Z,20.10
2022-08-18T04:32:37.020Z,20.10
2022-08-18T04:33:08.814Z,20.10
2022-08-18T04:33:42.082Z,20.10
2022-08-18T04:34:14.965Z,20.10
2022-08-18T04:34:46.762Z,20.10
2022-08-18T04:35:18.670Z,20.10
2022-08-18T04:35:50.477Z,20.10
2022-08-18T04:36:22.451Z,20.10
2022-08-18T04:36:54.378Z,20.10
2022-08-18T04:37:26.325Z,20.10
2022-08-18T04:37:58.152Z,20.10
2022-08-18T04:38:30.345Z,20.10
2022-08-18T04:39:07.757Z,20.10
2022-08-18T04:39:39.701Z,20.10
2022-08-18T04:40:14.405Z,20.00
2022-08-18T04:40:47.375Z,20.10
2022-08-18T04:41:19.427Z,20.10
2022-08-18T04:41:52.250Z,20.00
2022-08-18T04:42:24.035Z,20.00
2022-08-18T04:42:55.849Z,20.00
2022-08-18T04:43:27.624Z,20.00
2022-08-18T04:44:02.446Z,20.00
2022-08-18T04:44:37.751Z,20.10
2022-08-18T04:45:09.956Z,20.10
2022-08-18T04:45:43.670Z,20.00
2022-08-18T04:46:15.408Z,20.10
2022-08-18T04:46:53.220Z,20.00
2022-08-18T04:47:25.119Z,20.00
2022-08-18T04:47:58.121Z,20.00
2022-08-18T04:48:33.471Z,20.00
2022-08-18T04:49:05.745Z,20.00
2022-08-18T04:49:37.619Z,20.00
2022-08-18T04:50:10.281Z,20.00
2022-08-18T04:50:43.251Z,20.00
2022-08-18T04:52:26.899Z,20.00
2022-08-18T04:52:39.686Z,20.00
2022-08-18T04:53:31.571Z,20.00
2022-08-18T04:54:03.423Z,20.00
2022-08-18T04:54:38.935Z,20.00
2022-08-18T04:55:10.905Z,20.00
2022-08-18T04:55:53.910Z,20.10
2022-08-18T04:56:33.305Z,20.00
2022-08-18T04:57:14.240Z,20.00
2022-08-18T04:57:46.120Z,20.00
2022-08-18T04:58:23.608Z,20.00
2022-08-18T04:59:07.906Z,20.00
2022-08-18T04:59:42.839Z,20.00
2022-08-18T05:00:15.123Z,20.00
2022-08-18T05:00:47.678Z,20.00
2022-08-18T05:01:22.749Z,20.00
2022-08-18T05:01:54.542Z,20.00
2022-08-18T05:02:26.329Z,20.00
2022-08-18T05:02:58.170Z,20.00
2022-08-18T05:03:29.974Z,20.00
2022-08-18T05:04:02.535Z,20.00
2022-08-18T05:04:37.456Z,20.00
2022-08-18T05:05:10.015Z,20.00
2022-08-18T05:05:41.804Z,20.50
2022-08-18T05:06:13.629Z,20.00
2022-08-18T05:06:47.249Z,20.00
2022-08-18T05:07:22.722Z,20.00
2022-08-18T05:07:54.614Z,20.00
2022-08-18T05:08:26.860Z,20.00
2022-08-18T05:09:02.091Z,19.90
2022-08-18T05:09:41.462Z,20.00
2022-08-18T05:10:17.464Z,20.00
2022-08-18T05:10:54.564Z,20.00
2022-08-18T05:11:34.512Z,19.90
2022-08-18T05:12:08.134Z,20.00
2022-08-18T05:12:43.287Z,20.00
2022-08-18T05:13:17.614Z,20.00
2022-08-18T05:13:52.172Z,20.00
2022-08-18T05:14:24.698Z,20.00
2022-08-18T05:14:59.578Z,20.00
2022-08-18T05:15:46.838Z,20.00
2022-08-18T05:16:27.181Z,20.00
2022-08-18T05:17:01.031Z,20.00
2022-08-18T05:17:32.871Z,20.00
2022-08-18T05:18:05.993Z,20.00
2022-08-18T05:18:40.445Z,19.90
2022-08-18T05:19:15.365Z,20.00
2022-08-18T05:19:51.630Z,20.00
2022-08-18T05:20:23.810Z,19.90
2022-08-18T05:20:57.053Z,20.00
2022-08-18T05:21:28.819Z,20.00
2022-08-18T05:22:02.862Z,20.00
2022-08-18T05:22:40.650Z,19.90
2022-08-18T05:23:12.451Z,19.90
2022-08-18T05:23:48.235Z,19.90
2022-08-18T05:24:22.006Z,19.90
2022-08-18T05:24:53.910Z,19.90
2022-08-18T05:25:25.778Z,20.00
2022-08-18T05:25:59.968Z,19.90
2022-08-18T05:26:32.683Z,19.90
2022-08-18T05:27:05.319Z,20.00
2022-08-18T05:27:39.618Z,19.90
2022-08-18T05:28:11.992Z,20.00
2022-08-18T05:28:44.473Z,19.90
2022-08-18T05:29:18.723Z,19.90
2022-08-18T05:29:51.933Z,19.90
2022-08-18T05:30:23.903Z,19.90
2022-08-18T05:30:56.821Z,19.90
2022-08-18T05:31:33.067Z,19.90
2022-08-18T05:32:07.768Z,19.90
2022-08-18T05:32:48.073Z,19.90
2022-08-18T05:33:21.586Z,19.90
2022-08-18T05:33:57.564Z,19.90
2022-08-18T05:34:29.807Z,19.90
2022-08-18T05:35:16.476Z,19.90
2022-08-18T05:35:53.327Z,19.90
2022-08-18T05:36:25.082Z,19.90
2022-08-18T05:37:11.539Z,19.90
2022-08-18T05:38:01.481Z,19.90
2022-08-18T05:39:13.750Z,19.90
2022-08-18T05:40:11.053Z,19.90
2022-08-18T05:40:46.069Z,19.90
2022-08-18T05:41:28.962Z,19.90
2022-08-18T05:42:06.790Z,19.90
2022-08-18T05:42:40.824Z,19.90
2022-08-18T05:43:15.202Z,19.90
2022-08-18T05:43:51.410Z,19.90
2022-08-18T05:44:34.722Z,19.90
2022-08-18T05:45:12.661Z,19.90
2022-08-18T05:45:44.725Z,19.90
2022-08-18T05:46:17.018Z,19.90
2022-08-18T05:47:04.920Z,19.90
2022-08-18T05:47:36.846Z,19.90
2022-08-18T05:48:08.693Z,19.90
2022-08-18T05:48:43.775Z,19.90
2022-08-18T05:49:16.555Z,19.90
2022-08-18T05:49:49.669Z,19.90
2022-08-18T05:50:21.571Z,19.90
2022-08-18T05:50:55.940Z,19.80
2022-08-18T05:51:48.570Z,19.90
2022-08-18T05:52:33.522Z,19.90
2022-08-18T05:53:14.908Z,19.90
2022-08-18T05:54:05.597Z,19.90
2022-08-18T05:55:04.315Z,19.90
2022-08-18T05:56:03.373Z,19.90
2022-08-18T05:56:48.917Z,19.90
2022-08-18T05:57:24.098Z,19.90
2022-08-18T05:58:05.990Z,19.90
2022-08-18T05:58:43.088Z,19.90
2022-08-18T05:59:26.304Z,19.90
2022-08-18T05:59:59.951Z,19.90
2022-08-18T06:00:32.830Z,19.90
2022-08-18T06:01:13.698Z,19.90
2022-08-18T06:01:52.508Z,19.90
2022-08-18T06:02:40.775Z,19.90
2022-08-18T06:03:20.439Z,19.90
2022-08-18T06:04:16.123Z,19.90
2022-08-18T06:05:14.188Z,19.90
2022-08-18T06:06:01.319Z,19.90
2022-08-18T06:06:36.472Z,19.90
2022-08-18T06:07:13.611Z,19.90
2022-08-18T06:07:58.821Z,19.90
2022-08-18T06:08:39.543Z,19.90
2022-08-18T06:09:25.967Z,20.00
2022-08-18T06:09:57.868Z,19.90
2022-08-18T06:10:31.191Z,19.90
2022-08-18T06:11:03.155Z,19.90
2022-08-18T06:11:34.914Z,19.90
2022-08-18T06:12:25.656Z,19.90
2022-08-18T06:13:02.788Z,20.00
2022-08-18T06:13:43.927Z,19.90
2022-08-18T06:14:16.121Z,20.00
2022-08-18T06:14:48.531Z,19.90
2022-08-18T06:15:44.885Z,19.90
2022-08-18T06:16:33.085Z,19.90
2022-08-18T06:17:39.536Z,20.00
2022-08-18T06:18:21.881Z,19.90
2022-08-18T06:19:12.967Z,19.90
2022-08-18T06:20:19.388Z,19.90
2022-08-18T06:21:02.921Z,20.00
2022-08-18T06:21:54.770Z,19.90
2022-08-18T06:23:01.875Z,19.90
2022-08-18T06:23:48.786Z,19.90
2022-08-18T06:24:20.631Z,19.90
2022-08-18T06:25:11.307Z,19.90
2022-08-18T06:26:13.706Z,19.90
2022-08-18T06:27:09.931Z,19.90
2022-08-18T06:27:56.071Z,19.90
2022-08-18T06:28:44.631Z,19.90
2022-08-18T06:29:38.761Z,20.00
2022-08-18T06:30:33.254Z,19.90
2022-08-18T06:31:45.287Z,20.00
2022-08-18T06:32:38.252Z,20.00
2022-08-18T06:33:34.623Z,20.00
2022-08-18T06:34:32.547Z,20.00
2022-08-18T06:35:18.825Z,20.00
2022-08-18T06:35:55.177Z,20.00
2022-08-18T06:36:46.234Z,20.00
2022-08-18T06:37:59.451Z,20.00
2022-08-18T06:38:48.016Z,20.00
2022-08-18T06:39:45.284Z,20.00
2022-08-18T06:40:17.209Z,20.00
2022-08-18T06:40:50.104Z,20.00
2022-08-18T06:41:42.882Z,20.00
2022-08-18T06:42:21.612Z,20.00
2022-08-18T06:42:53.567Z,20.00
2022-08-18T06:43:28.500Z,20.00
2022-08-18T06:44:04.015Z,20.00
2022-08-18T06:44:48.955Z,20.00
2022-08-18T06:45:33.959Z,20.00
2022-08-18T06:46:17.647Z,20.00
2022-08-18T06:46:56.176Z,20.00
2022-08-18T06:47:33.372Z,21.60
2022-08-18T06:48:32.530Z,18.70
2022-08-18T06:49:09.007Z,20.00
2022-08-18T06:49:57.024Z,20.00
2022-08-18T06:50:36.146Z,20.00
2022-08-18T06:51:12.162Z,20.00
2022-08-18T06:51:43.905Z,20.00
2022-08-18T06:52:25.425Z,20.00
2022-08-18T06:53:02.131Z,20.00
2022-08-18T06:54:30.110Z,20.00
2022-08-18T06:55:05.142Z,20.10
2022-08-18T06:55:44.938Z,20.10
